sensor_id;sensor_type;location;lat;lon;timestamp;temperature;humidity
23671;DHT22;12012;51.998;7.614;2022-12-07T00:00:55;5.30;99.90
23671;DHT22;12012;51.998;7.614;2022-12-07T00:03:21;5.30;99.90
23671;DHT22;12012;51.998;7.614;2022-12-07T00:05:46;5.30;99.90
23671;DHT22;12012;51.998;7.614;2022-12-07T00:08:12;5.30;99.90
23671;DHT22;12012;51.998;7.614;2022-12-07T00:10:37;5.30;99.90
23671;DHT22;12012;51.998;7.614;2022-12-07T00:13:03;5.30;99.90
23671;DHT22;12012;51.998;7.614;2022-12-07T00:15:28;5.30;99.90
23671;DHT22;12012;51.998;7.614;2022-12-07T00:17:54;5.30;99.90
23671;DHT22;12012;51.998;7.614;2022-12-07T00:20:19;5.30;99.90
23671;DHT22;12012;51.998;7.614;2022-12-07T00:22:45;5.30;99.90
23671;DHT22;12012;51.998;7.614;2022-12-07T00:25:10;5.20;99.90
23671;DHT22;12012;51.998;7.614;2022-12-07T00:27:36;5.30;99.90
23671;DHT22;12012;51.998;7.614;2022-12-07T00:30:02;5.20;99.90
23671;DHT22;12012;51.998;7.614;2022-12-07T00:32:27;5.20;99.90
23671;DHT22;12012;51.998;7.614;2022-12-07T00:34:53;5.20;99.90
23671;DHT22;12012;51.998;7.614;2022-12-07T00:37:18;5.20;99.90
23671;DHT22;12012;51.998;7.614;2022-12-07T00:39:45;5.20;99.90
23671;DHT22;12012;51.998;7.614;2022-12-07T00:42:11;5.20;99.90
23671;DHT22;12012;51.998;7.614;2022-12-07T00:44:36;5.10;99.90
23671;DHT22;12012;51.998;7.614;2022-12-07T00:47:02;5.10;99.90
23671;DHT22;12012;51.998;7.614;2022-12-07T00:49:28;5.10;99.90
23671;DHT22;12012;51.998;7.614;2022-12-07T00:51:53;5.00;99.90
23671;DHT22;12012;51.998;7.614;2022-12-07T00:54:19;5.00;99.90
23671;DHT22;12012;51.998;7.614;2022-12-07T00:56:44;5.00;99.90
23671;DHT22;12012;51.998;7.614;2022-12-07T00:59:12;4.90;99.90
23671;DHT22;12012;51.998;7.614;2022-12-07T01:01:39;4.90;99.90
23671;DHT22;12012;51.998;7.614;2022-12-07T01:04:06;4.90;99.90
23671;DHT22;12012;51.998;7.614;2022-12-07T01:06:32;4.90;99.90
23671;DHT22;12012;51.998;7.614;2022-12-07T01:08:58;4.80;99.90
23671;DHT22;12012;51.998;7.614;2022-12-07T01:11:25;4.80;99.90
23671;DHT22;12012;51.998;7.614;2022-12-07T01:13:53;4.80;99.90
23671;DHT22;12012;51.998;7.614;2022-12-07T01:16:21;4.80;99.90
23671;DHT22;12012;51.998;7.614;2022-12-07T01:18:48;4.80;99.90
23671;DHT22;12012;51.998;7.614;2022-12-07T01:21:20;4.70;99.90
23671;DHT22;12012;51.998;7.614;2022-12-07T01:23:46;4.70;99.90
23671;DHT22;12012;51.998;7.614;2022-12-07T01:26:14;4.70;99.90
23671;DHT22;12012;51.998;7.614;2022-12-07T01:28:40;4.60;99.90
23671;DHT22;12012;51.998;7.614;2022-12-07T01:31:09;4.60;99.90
23671;DHT22;12012;51.998;7.614;2022-12-07T01:33:40;4.50;99.90
23671;DHT22;12012;51.998;7.614;2022-12-07T01:36:24;4.50;99.90
23671;DHT22;12012;51.998;7.614;2022-12-07T01:38:52;4.40;99.90
23671;DHT22;12012;51.998;7.614;2022-12-07T01:41:20;4.40;99.90
23671;DHT22;12012;51.998;7.614;2022-12-07T01:46:33;4.30;99.90
23671;DHT22;12012;51.998;7.614;2022-12-07T01:48:59;4.30;99.90
23671;DHT22;12012;51.998;7.614;2022-12-07T01:51:25;4.30;99.90
23671;DHT22;12012;51.998;7.614;2022-12-07T01:53:51;4.20;99.90
23671;DHT22;12012;51.998;7.614;2022-12-07T01:56:22;4.20;99.90
23671;DHT22;12012;51.998;7.614;2022-12-07T01:58:51;4.20;99.90
23671;DHT22;12012;51.998;7.614;2022-12-07T02:01:17;4.10;99.90
23671;DHT22;12012;51.998;7.614;2022-12-07T02:03:43;4.10;99.90
23671;DHT22;12012;51.998;7.614;2022-12-07T02:06:12;4.00;99.90
23671;DHT22;12012;51.998;7.614;2022-12-07T02:08:39;4.00;99.90
23671;DHT22;12012;51.998;7.614;2022-12-07T02:11:07;4.00;99.90
23671;DHT22;12012;51.998;7.614;2022-12-07T02:13:35;3.90;99.90
23671;DHT22;12012;51.998;7.614;2022-12-07T02:21:51;3.80;99.90
23671;DHT22;12012;51.998;7.614;2022-12-07T02:32:49;3.60;99.90
23671;DHT22;12012;51.998;7.614;2022-12-07T02:35:24;3.60;99.90
23671;DHT22;12012;51.998;7.614;2022-12-07T02:40:54;3.60;99.90
23671;DHT22;12012;51.998;7.614;2022-12-07T02:43:26;3.50;99.90
23671;DHT22;12012;51.998;7.614;2022-12-07T02:45:54;3.50;99.90
23671;DHT22;12012;51.998;7.614;2022-12-07T02:48:23;3.50;99.90
23671;DHT22;12012;51.998;7.614;2022-12-07T02:50:51;3.40;99.90
23671;DHT22;12012;51.998;7.614;2022-12-07T02:53:32;3.40;99.90
23671;DHT22;12012;51.998;7.614;2022-12-07T02:56:05;3.40;99.90
23671;DHT22;12012;51.998;7.614;2022-12-07T03:04:40;3.30;99.90
23671;DHT22;12012;51.998;7.614;2022-12-07T03:07:27;3.30;99.90
23671;DHT22;12012;51.998;7.614;2022-12-07T03:15:18;3.30;99.90
23671;DHT22;12012;51.998;7.614;2022-12-07T03:17:46;3.30;99.90
23671;DHT22;12012;51.998;7.614;2022-12-07T03:20:16;3.20;99.90
23671;DHT22;12012;51.998;7.614;2022-12-07T03:22:43;3.20;99.90
23671;DHT22;12012;51.998;7.614;2022-12-07T03:25:13;3.20;99.90
23671;DHT22;12012;51.998;7.614;2022-12-07T03:27:52;3.20;99.90
23671;DHT22;12012;51.998;7.614;2022-12-07T03:30:24;3.20;99.90
23671;DHT22;12012;51.998;7.614;2022-12-07T03:33:12;3.20;99.90
23671;DHT22;12012;51.998;7.614;2022-12-07T03:36:04;3.10;99.90
23671;DHT22;12012;51.998;7.614;2022-12-07T03:38:52;3.10;99.90
23671;DHT22;12012;51.998;7.614;2022-12-07T03:41:31;3.10;99.90
23671;DHT22;12012;51.998;7.614;2022-12-07T03:43:57;3.10;99.90
23671;DHT22;12012;51.998;7.614;2022-12-07T03:50:06;3.00;99.90
23671;DHT22;12012;51.998;7.614;2022-12-07T03:52:44;3.00;99.90
23671;DHT22;12012;51.998;7.614;2022-12-07T03:55:27;3.00;99.90
23671;DHT22;12012;51.998;7.614;2022-12-07T03:57:56;3.00;99.90
23671;DHT22;12012;51.998;7.614;2022-12-07T04:00:23;3.10;99.90
23671;DHT22;12012;51.998;7.614;2022-12-07T04:02:51;3.10;99.90
23671;DHT22;12012;51.998;7.614;2022-12-07T04:05:17;3.10;99.90
23671;DHT22;12012;51.998;7.614;2022-12-07T04:07:43;3.20;99.90
23671;DHT22;12012;51.998;7.614;2022-12-07T04:10:09;3.20;99.90
23671;DHT22;12012;51.998;7.614;2022-12-07T04:12:34;3.20;99.90
23671;DHT22;12012;51.998;7.614;2022-12-07T04:15:00;3.30;99.90
23671;DHT22;12012;51.998;7.614;2022-12-07T04:17:26;3.30;99.90
23671;DHT22;12012;51.998;7.614;2022-12-07T04:19:51;3.30;99.90
23671;DHT22;12012;51.998;7.614;2022-12-07T04:22:17;3.30;99.90
23671;DHT22;12012;51.998;7.614;2022-12-07T04:24:42;3.40;99.90
23671;DHT22;12012;51.998;7.614;2022-12-07T04:27:08;3.40;99.90
23671;DHT22;12012;51.998;7.614;2022-12-07T04:29:33;3.40;99.90
23671;DHT22;12012;51.998;7.614;2022-12-07T04:31:59;3.40;99.90
23671;DHT22;12012;51.998;7.614;2022-12-07T04:34:24;3.40;99.90
23671;DHT22;12012;51.998;7.614;2022-12-07T04:36:50;3.40;99.90
23671;DHT22;12012;51.998;7.614;2022-12-07T04:39:26;3.40;99.90
23671;DHT22;12012;51.998;7.614;2022-12-07T04:41:52;3.40;99.90
23671;DHT22;12012;51.998;7.614;2022-12-07T04:44:19;3.40;99.90
23671;DHT22;12012;51.998;7.614;2022-12-07T04:46:45;3.50;99.90
23671;DHT22;12012;51.998;7.614;2022-12-07T04:49:12;3.40;99.90
23671;DHT22;12012;51.998;7.614;2022-12-07T04:51:38;3.40;99.90
23671;DHT22;12012;51.998;7.614;2022-12-07T04:54:04;3.40;99.90
23671;DHT22;12012;51.998;7.614;2022-12-07T04:56:30;3.40;99.90
23671;DHT22;12012;51.998;7.614;2022-12-07T04:58:55;3.30;99.90
23671;DHT22;12012;51.998;7.614;2022-12-07T05:01:22;3.30;99.90
23671;DHT22;12012;51.998;7.614;2022-12-07T05:03:48;3.30;99.90
23671;DHT22;12012;51.998;7.614;2022-12-07T05:06:14;3.30;99.90
23671;DHT22;12012;51.998;7.614;2022-12-07T05:08:40;3.30;99.90
23671;DHT22;12012;51.998;7.614;2022-12-07T05:11:06;3.30;99.90
23671;DHT22;12012;51.998;7.614;2022-12-07T05:13:33;3.30;99.90
23671;DHT22;12012;51.998;7.614;2022-12-07T05:15:59;3.30;99.90
23671;DHT22;12012;51.998;7.614;2022-12-07T05:18:24;3.30;99.90
23671;DHT22;12012;51.998;7.614;2022-12-07T05:20:50;3.30;99.90
23671;DHT22;12012;51.998;7.614;2022-12-07T05:23:17;3.30;99.90
23671;DHT22;12012;51.998;7.614;2022-12-07T05:25:43;3.30;99.90
23671;DHT22;12012;51.998;7.614;2022-12-07T05:28:08;3.40;99.90
23671;DHT22;12012;51.998;7.614;2022-12-07T05:30:34;3.40;99.90
23671;DHT22;12012;51.998;7.614;2022-12-07T05:33:00;3.40;99.90
23671;DHT22;12012;51.998;7.614;2022-12-07T05:35:25;3.40;99.90
23671;DHT22;12012;51.998;7.614;2022-12-07T05:37:51;3.40;99.90
23671;DHT22;12012;51.998;7.614;2022-12-07T05:40:17;3.40;99.90
23671;DHT22;12012;51.998;7.614;2022-12-07T05:42:44;3.40;99.90
23671;DHT22;12012;51.998;7.614;2022-12-07T05:45:10;3.40;99.90
23671;DHT22;12012;51.998;7.614;2022-12-07T05:47:37;3.30;99.90
23671;DHT22;12012;51.998;7.614;2022-12-07T05:50:04;3.40;99.90
23671;DHT22;12012;51.998;7.614;2022-12-07T05:52:30;3.30;99.90
23671;DHT22;12012;51.998;7.614;2022-12-07T05:54:55;3.30;99.90
23671;DHT22;12012;51.998;7.614;2022-12-07T05:57:21;3.30;99.90
23671;DHT22;12012;51.998;7.614;2022-12-07T05:59:47;3.20;99.90
23671;DHT22;12012;51.998;7.614;2022-12-07T06:02:14;3.20;99.90
23671;DHT22;12012;51.998;7.614;2022-12-07T06:04:42;3.30;99.90
23671;DHT22;12012;51.998;7.614;2022-12-07T06:07:09;3.30;99.90
23671;DHT22;12012;51.998;7.614;2022-12-07T06:09:35;3.30;99.90
23671;DHT22;12012;51.998;7.614;2022-12-07T06:12:02;3.30;99.90
23671;DHT22;12012;51.998;7.614;2022-12-07T06:14:46;3.30;99.90
23671;DHT22;12012;51.998;7.614;2022-12-07T06:17:12;3.30;99.90
23671;DHT22;12012;51.998;7.614;2022-12-07T06:19:38;3.30;99.90
23671;DHT22;12012;51.998;7.614;2022-12-07T06:22:05;3.30;99.90
23671;DHT22;12012;51.998;7.614;2022-12-07T06:24:32;3.30;99.90
23671;DHT22;12012;51.998;7.614;2022-12-07T06:26:58;3.40;99.90
23671;DHT22;12012;51.998;7.614;2022-12-07T06:29:23;3.40;99.90
23671;DHT22;12012;51.998;7.614;2022-12-07T06:31:49;3.40;99.90
23671;DHT22;12012;51.998;7.614;2022-12-07T06:34:17;3.40;99.90
23671;DHT22;12012;51.998;7.614;2022-12-07T06:36:44;3.40;99.90
23671;DHT22;12012;51.998;7.614;2022-12-07T06:39:11;3.40;99.90
23671;DHT22;12012;51.998;7.614;2022-12-07T06:41:38;3.40;99.90
23671;DHT22;12012;51.998;7.614;2022-12-07T06:44:05;3.30;99.90
23671;DHT22;12012;51.998;7.614;2022-12-07T06:46:31;3.30;99.90
23671;DHT22;12012;51.998;7.614;2022-12-07T06:48:57;3.20;99.90
23671;DHT22;12012;51.998;7.614;2022-12-07T06:51:23;3.20;99.90
23671;DHT22;12012;51.998;7.614;2022-12-07T06:53:49;3.20;99.90
23671;DHT22;12012;51.998;7.614;2022-12-07T06:56:14;3.10;99.90
23671;DHT22;12012;51.998;7.614;2022-12-07T06:58:40;3.10;99.90
23671;DHT22;12012;51.998;7.614;2022-12-07T07:01:11;3.00;99.90
23671;DHT22;12012;51.998;7.614;2022-12-07T07:03:37;3.00;99.90
23671;DHT22;12012;51.998;7.614;2022-12-07T07:06:03;3.00;99.90
23671;DHT22;12012;51.998;7.614;2022-12-07T07:08:28;3.00;99.90
23671;DHT22;12012;51.998;7.614;2022-12-07T07:10:54;2.90;99.90
23671;DHT22;12012;51.998;7.614;2022-12-07T07:13:20;2.90;99.90
23671;DHT22;12012;51.998;7.614;2022-12-07T07:15:45;2.90;99.90
23671;DHT22;12012;51.998;7.614;2022-12-07T07:18:11;2.90;99.90
23671;DHT22;12012;51.998;7.614;2022-12-07T07:20:37;2.90;99.90
23671;DHT22;12012;51.998;7.614;2022-12-07T07:23:02;2.90;99.90
23671;DHT22;12012;51.998;7.614;2022-12-07T07:25:28;3.00;99.90
23671;DHT22;12012;51.998;7.614;2022-12-07T07:27:54;3.00;99.90
23671;DHT22;12012;51.998;7.614;2022-12-07T07:30:20;3.10;99.90
23671;DHT22;12012;51.998;7.614;2022-12-07T07:32:45;3.10;99.90
23671;DHT22;12012;51.998;7.614;2022-12-07T07:35:11;3.10;99.90
23671;DHT22;12012;51.998;7.614;2022-12-07T07:37:37;3.20;99.90
23671;DHT22;12012;51.998;7.614;2022-12-07T07:40:03;3.20;99.90
23671;DHT22;12012;51.998;7.614;2022-12-07T07:42:29;3.20;99.90
23671;DHT22;12012;51.998;7.614;2022-12-07T07:44:54;3.20;99.90
23671;DHT22;12012;51.998;7.614;2022-12-07T07:47:20;3.30;99.90
23671;DHT22;12012;51.998;7.614;2022-12-07T07:49:45;3.40;99.90
23671;DHT22;12012;51.998;7.614;2022-12-07T07:52:11;3.30;99.90
23671;DHT22;12012;51.998;7.614;2022-12-07T07:54:37;3.40;99.90
23671;DHT22;12012;51.998;7.614;2022-12-07T07:57:02;3.40;99.90
23671;DHT22;12012;51.998;7.614;2022-12-07T07:59:28;3.40;99.90
23671;DHT22;12012;51.998;7.614;2022-12-07T08:01:53;3.30;99.90
23671;DHT22;12012;51.998;7.614;2022-12-07T08:04:19;3.40;99.90
23671;DHT22;12012;51.998;7.614;2022-12-07T08:06:44;3.30;99.90
23671;DHT22;12012;51.998;7.614;2022-12-07T08:09:10;3.30;99.90
23671;DHT22;12012;51.998;7.614;2022-12-07T08:11:36;3.30;99.90
23671;DHT22;12012;51.998;7.614;2022-12-07T08:14:02;3.30;99.90
23671;DHT22;12012;51.998;7.614;2022-12-07T08:16:28;3.30;99.90
23671;DHT22;12012;51.998;7.614;2022-12-07T08:18:53;3.30;99.90
23671;DHT22;12012;51.998;7.614;2022-12-07T08:21:19;3.20;99.90
23671;DHT22;12012;51.998;7.614;2022-12-07T08:23:45;3.30;99.90
23671;DHT22;12012;51.998;7.614;2022-12-07T08:26:13;3.30;99.90
23671;DHT22;12012;51.998;7.614;2022-12-07T08:28:39;3.30;99.90
23671;DHT22;12012;51.998;7.614;2022-12-07T08:31:07;3.30;99.90
23671;DHT22;12012;51.998;7.614;2022-12-07T08:33:34;3.30;99.90
23671;DHT22;12012;51.998;7.614;2022-12-07T08:36:05;3.30;99.90
23671;DHT22;12012;51.998;7.614;2022-12-07T08:38:31;3.30;99.90
23671;DHT22;12012;51.998;7.614;2022-12-07T08:40:57;3.30;99.90
23671;DHT22;12012;51.998;7.614;2022-12-07T08:43:24;3.30;99.90
23671;DHT22;12012;51.998;7.614;2022-12-07T08:46:18;3.40;99.90
23671;DHT22;12012;51.998;7.614;2022-12-07T08:48:54;3.60;99.90
23671;DHT22;12012;51.998;7.614;2022-12-07T08:51:22;3.70;99.90
23671;DHT22;12012;51.998;7.614;2022-12-07T08:53:50;3.80;99.90
23671;DHT22;12012;51.998;7.614;2022-12-07T08:56:16;4.00;99.90
23671;DHT22;12012;51.998;7.614;2022-12-07T08:58:42;4.10;99.90
23671;DHT22;12012;51.998;7.614;2022-12-07T09:01:08;4.10;99.90
23671;DHT22;12012;51.998;7.614;2022-12-07T09:03:33;4.30;99.90
23671;DHT22;12012;51.998;7.614;2022-12-07T09:05:59;4.30;99.90
23671;DHT22;12012;51.998;7.614;2022-12-07T09:08:31;4.40;99.90
23671;DHT22;12012;51.998;7.614;2022-12-07T09:10:58;4.40;99.90
23671;DHT22;12012;51.998;7.614;2022-12-07T09:13:23;4.50;99.90
23671;DHT22;12012;51.998;7.614;2022-12-07T09:15:49;4.50;99.90
23671;DHT22;12012;51.998;7.614;2022-12-07T09:18:15;4.60;99.90
23671;DHT22;12012;51.998;7.614;2022-12-07T09:20:40;4.60;99.90
23671;DHT22;12012;51.998;7.614;2022-12-07T09:23:07;4.70;99.90
23671;DHT22;12012;51.998;7.614;2022-12-07T09:25:33;5.00;99.90
23671;DHT22;12012;51.998;7.614;2022-12-07T09:27:59;5.30;99.90
23671;DHT22;12012;51.998;7.614;2022-12-07T09:30:25;5.50;99.90
23671;DHT22;12012;51.998;7.614;2022-12-07T09:32:53;5.70;98.60
23671;DHT22;12012;51.998;7.614;2022-12-07T09:35:19;5.70;93.50
23671;DHT22;12012;51.998;7.614;2022-12-07T09:37:45;5.60;92.80
23671;DHT22;12012;51.998;7.614;2022-12-07T09:40:11;5.50;92.50
23671;DHT22;12012;51.998;7.614;2022-12-07T09:42:39;5.50;92.60
23671;DHT22;12012;51.998;7.614;2022-12-07T09:45:10;5.40;91.00
23671;DHT22;12012;51.998;7.614;2022-12-07T09:47:37;5.50;92.50
23671;DHT22;12012;51.998;7.614;2022-12-07T09:50:18;5.60;92.00
23671;DHT22;12012;51.998;7.614;2022-12-07T09:52:45;5.90;90.00
23671;DHT22;12012;51.998;7.614;2022-12-07T09:55:34;6.00;89.10
23671;DHT22;12012;51.998;7.614;2022-12-07T09:58:01;6.10;90.20
23671;DHT22;12012;51.998;7.614;2022-12-07T10:00:26;6.30;84.00
23671;DHT22;12012;51.998;7.614;2022-12-07T10:03:01;6.60;80.80
23671;DHT22;12012;51.998;7.614;2022-12-07T10:05:30;6.70;73.90
23671;DHT22;12012;51.998;7.614;2022-12-07T10:07:57;6.70;63.50
23671;DHT22;12012;51.998;7.614;2022-12-07T10:10:34;6.70;66.80
23671;DHT22;12012;51.998;7.614;2022-12-07T10:13:02;6.60;58.50
23671;DHT22;12012;51.998;7.614;2022-12-07T10:20:47;7.30;51.10
23671;DHT22;12012;51.998;7.614;2022-12-07T10:23:17;7.90;42.10
23671;DHT22;12012;51.998;7.614;2022-12-07T10:25:44;8.50;31.80
23671;DHT22;12012;51.998;7.614;2022-12-07T10:28:16;8.90;24.60
23671;DHT22;12012;51.998;7.614;2022-12-07T10:34:29;8.80;13.20
23671;DHT22;12012;51.998;7.614;2022-12-07T10:39:12;8.60;19.00
23671;DHT22;12012;51.998;7.614;2022-12-07T10:41:59;8.50;4.40
23671;DHT22;12012;51.998;7.614;2022-12-07T10:44:30;8.20;7.70
23671;DHT22;12012;51.998;7.614;2022-12-07T10:50:18;7.70;1.00
23671;DHT22;12012;51.998;7.614;2022-12-07T11:06:34;7.00;30.00
23671;DHT22;12012;51.998;7.614;2022-12-07T11:12:22;7.30;19.80
23671;DHT22;12012;51.998;7.614;2022-12-07T11:15:55;8.50;1.00
23671;DHT22;12012;51.998;7.614;2022-12-07T11:18:16;9.00;1.00
23671;DHT22;12012;51.998;7.614;2022-12-07T11:20:55;10.30;1.00
23671;DHT22;12012;51.998;7.614;2022-12-07T11:26:06;12.00;99.90
23671;DHT22;12012;51.998;7.614;2022-12-07T11:36:56;14.10;99.90
23671;DHT22;12012;51.998;7.614;2022-12-07T11:41:49;13.80;99.90
23671;DHT22;12012;51.998;7.614;2022-12-07T11:44:26;14.80;99.90
23671;DHT22;12012;51.998;7.614;2022-12-07T11:49:54;15.60;1.00
23671;DHT22;12012;51.998;7.614;2022-12-07T12:04:25;16.10;99.90
23671;DHT22;12012;51.998;7.614;2022-12-07T12:06:30;15.00;99.90
23671;DHT22;12012;51.998;7.614;2022-12-07T12:09:12;13.80;99.90
23671;DHT22;12012;51.998;7.614;2022-12-07T12:12:01;13.00;99.90
23671;DHT22;12012;51.998;7.614;2022-12-07T12:22:39;16.90;99.90
23671;DHT22;12012;51.998;7.614;2022-12-07T12:25:13;17.50;99.90
23671;DHT22;12012;51.998;7.614;2022-12-07T12:27:46;18.00;99.90
23671;DHT22;12012;51.998;7.614;2022-12-07T12:32:50;18.20;91.60
23671;DHT22;12012;51.998;7.614;2022-12-07T12:35:27;17.50;85.60
23671;DHT22;12012;51.998;7.614;2022-12-07T12:37:54;16.20;81.50
23671;DHT22;12012;51.998;7.614;2022-12-07T12:42:56;13.90;78.40
23671;DHT22;12012;51.998;7.614;2022-12-07T12:45:27;13.00;82.50
23671;DHT22;12012;51.998;7.614;2022-12-07T12:47:54;13.00;91.10
23671;DHT22;12012;51.998;7.614;2022-12-07T12:50:22;13.50;96.00
23671;DHT22;12012;51.998;7.614;2022-12-07T12:52:52;12.80;94.70
23671;DHT22;12012;51.998;7.614;2022-12-07T12:55:25;12.00;94.70
23671;DHT22;12012;51.998;7.614;2022-12-07T13:00:44;10.70;95.30
23671;DHT22;12012;51.998;7.614;2022-12-07T13:03:26;10.30;99.90
23671;DHT22;12012;51.998;7.614;2022-12-07T13:08:44;11.50;99.90
23671;DHT22;12012;51.998;7.614;2022-12-07T13:11:30;12.40;99.90
23671;DHT22;12012;51.998;7.614;2022-12-07T13:17:00;11.90;99.90
23671;DHT22;12012;51.998;7.614;2022-12-07T13:25:33;9.90;99.90
23671;DHT22;12012;51.998;7.614;2022-12-07T13:28:20;9.50;99.90
23671;DHT22;12012;51.998;7.614;2022-12-07T13:33:35;8.70;99.90
23671;DHT22;12012;51.998;7.614;2022-12-07T13:36:01;8.50;99.90
23671;DHT22;12012;51.998;7.614;2022-12-07T13:38:32;8.30;99.90
23671;DHT22;12012;51.998;7.614;2022-12-07T13:41:03;8.10;99.90
23671;DHT22;12012;51.998;7.614;2022-12-07T13:43:29;7.90;99.90
23671;DHT22;12012;51.998;7.614;2022-12-07T13:45:57;7.80;1.00
23671;DHT22;12012;51.998;7.614;2022-12-07T13:48:36;7.70;1.00
23671;DHT22;12012;51.998;7.614;2022-12-07T13:51:20;7.50;1.00
23671;DHT22;12012;51.998;7.614;2022-12-07T13:53:52;7.40;1.00
23671;DHT22;12012;51.998;7.614;2022-12-07T13:56:21;7.20;82.80
23671;DHT22;12012;51.998;7.614;2022-12-07T13:58:47;7.10;99.90
23671;DHT22;12012;51.998;7.614;2022-12-07T14:01:13;6.90;99.90
23671;DHT22;12012;51.998;7.614;2022-12-07T14:03:39;6.80;99.90
23671;DHT22;12012;51.998;7.614;2022-12-07T14:06:14;6.70;1.00
23671;DHT22;12012;51.998;7.614;2022-12-07T14:08:41;6.60;1.00
23671;DHT22;12012;51.998;7.614;2022-12-07T14:11:18;6.60;70.40
23671;DHT22;12012;51.998;7.614;2022-12-07T14:14:04;6.50;99.90
23671;DHT22;12012;51.998;7.614;2022-12-07T14:16:33;6.40;99.90
23671;DHT22;12012;51.998;7.614;2022-12-07T14:19:02;6.40;1.00
23671;DHT22;12012;51.998;7.614;2022-12-07T14:21:30;6.30;1.00
23671;DHT22;12012;51.998;7.614;2022-12-07T14:24:22;6.30;1.00
23671;DHT22;12012;51.998;7.614;2022-12-07T14:26:49;6.20;12.70
23671;DHT22;12012;51.998;7.614;2022-12-07T14:31:50;6.20;99.90
23671;DHT22;12012;51.998;7.614;2022-12-07T14:34:16;6.10;99.90
23671;DHT22;12012;51.998;7.614;2022-12-07T14:36:42;6.10;1.00
23671;DHT22;12012;51.998;7.614;2022-12-07T14:39:07;6.00;99.90
23671;DHT22;12012;51.998;7.614;2022-12-07T14:41:33;6.00;99.90
23671;DHT22;12012;51.998;7.614;2022-12-07T14:44:18;6.00;88.60
23671;DHT22;12012;51.998;7.614;2022-12-07T14:46:45;5.90;1.00
23671;DHT22;12012;51.998;7.614;2022-12-07T14:49:10;5.90;1.00
23671;DHT22;12012;51.998;7.614;2022-12-07T14:51:38;5.80;1.00
23671;DHT22;12012;51.998;7.614;2022-12-07T14:54:05;5.80;1.00
23671;DHT22;12012;51.998;7.614;2022-12-07T14:56:32;5.80;99.90
23671;DHT22;12012;51.998;7.614;2022-12-07T14:58:57;5.70;99.90
23671;DHT22;12012;51.998;7.614;2022-12-07T15:01:23;5.60;99.90
23671;DHT22;12012;51.998;7.614;2022-12-07T15:03:48;5.60;99.90
23671;DHT22;12012;51.998;7.614;2022-12-07T15:06:16;5.50;99.90
23671;DHT22;12012;51.998;7.614;2022-12-07T15:08:43;5.50;99.90
23671;DHT22;12012;51.998;7.614;2022-12-07T15:11:17;5.40;1.00
23671;DHT22;12012;51.998;7.614;2022-12-07T15:13:43;5.30;1.00
23671;DHT22;12012;51.998;7.614;2022-12-07T15:16:27;5.30;99.90
23671;DHT22;12012;51.998;7.614;2022-12-07T15:18:53;5.30;99.90
23671;DHT22;12012;51.998;7.614;2022-12-07T15:21:18;5.20;99.90
23671;DHT22;12012;51.998;7.614;2022-12-07T15:23:46;5.20;99.90
23671;DHT22;12012;51.998;7.614;2022-12-07T15:26:12;5.10;1.00
23671;DHT22;12012;51.998;7.614;2022-12-07T15:28:39;5.10;26.70
23671;DHT22;12012;51.998;7.614;2022-12-07T15:31:13;5.00;99.90
23671;DHT22;12012;51.998;7.614;2022-12-07T15:33:39;5.00;1.00
23671;DHT22;12012;51.998;7.614;2022-12-07T15:36:05;5.00;1.00
23671;DHT22;12012;51.998;7.614;2022-12-07T15:38:31;5.00;99.90
23671;DHT22;12012;51.998;7.614;2022-12-07T15:40:57;5.00;1.00
23671;DHT22;12012;51.998;7.614;2022-12-07T15:43:22;4.90;99.90
23671;DHT22;12012;51.998;7.614;2022-12-07T15:46:07;4.90;99.90
23671;DHT22;12012;51.998;7.614;2022-12-07T15:48:33;4.90;1.00
23671;DHT22;12012;51.998;7.614;2022-12-07T15:51:06;4.90;48.90
23671;DHT22;12012;51.998;7.614;2022-12-07T15:53:32;4.90;99.90
23671;DHT22;12012;51.998;7.614;2022-12-07T15:55:58;4.80;1.00
23671;DHT22;12012;51.998;7.614;2022-12-07T15:58:24;4.90;99.90
23671;DHT22;12012;51.998;7.614;2022-12-07T16:00:50;4.90;1.00
23671;DHT22;12012;51.998;7.614;2022-12-07T16:03:16;4.90;1.00
23671;DHT22;12012;51.998;7.614;2022-12-07T16:05:41;4.90;99.90
23671;DHT22;12012;51.998;7.614;2022-12-07T16:08:07;4.90;99.90
23671;DHT22;12012;51.998;7.614;2022-12-07T16:10:33;4.90;99.90
23671;DHT22;12012;51.998;7.614;2022-12-07T16:12:59;4.90;99.90
23671;DHT22;12012;51.998;7.614;2022-12-07T16:15:24;4.90;99.90
23671;DHT22;12012;51.998;7.614;2022-12-07T16:17:51;4.90;99.90
23671;DHT22;12012;51.998;7.614;2022-12-07T16:20:17;4.90;1.00
23671;DHT22;12012;51.998;7.614;2022-12-07T16:22:42;4.90;99.90
23671;DHT22;12012;51.998;7.614;2022-12-07T16:25:08;4.90;1.00
23671;DHT22;12012;51.998;7.614;2022-12-07T16:27:34;4.80;1.00
23671;DHT22;12012;51.998;7.614;2022-12-07T16:30:00;4.80;1.00
23671;DHT22;12012;51.998;7.614;2022-12-07T16:32:26;4.80;1.00
23671;DHT22;12012;51.998;7.614;2022-12-07T16:34:51;4.70;1.00
23671;DHT22;12012;51.998;7.614;2022-12-07T16:37:17;4.70;1.00
23671;DHT22;12012;51.998;7.614;2022-12-07T16:39:42;4.70;1.00
23671;DHT22;12012;51.998;7.614;2022-12-07T16:42:08;4.70;1.00
23671;DHT22;12012;51.998;7.614;2022-12-07T16:44:33;4.70;1.00
23671;DHT22;12012;51.998;7.614;2022-12-07T16:46:59;4.70;1.00
23671;DHT22;12012;51.998;7.614;2022-12-07T16:49:26;4.60;1.00
23671;DHT22;12012;51.998;7.614;2022-12-07T16:51:51;4.60;1.00
23671;DHT22;12012;51.998;7.614;2022-12-07T16:54:17;4.60;1.00
23671;DHT22;12012;51.998;7.614;2022-12-07T16:56:43;4.60;1.00
23671;DHT22;12012;51.998;7.614;2022-12-07T16:59:08;4.60;1.00
23671;DHT22;12012;51.998;7.614;2022-12-07T17:01:34;4.60;1.00
23671;DHT22;12012;51.998;7.614;2022-12-07T17:04:00;4.50;1.00
23671;DHT22;12012;51.998;7.614;2022-12-07T17:06:27;4.50;1.00
23671;DHT22;12012;51.998;7.614;2022-12-07T17:08:53;4.50;1.00
23671;DHT22;12012;51.998;7.614;2022-12-07T17:11:21;4.50;1.00
23671;DHT22;12012;51.998;7.614;2022-12-07T17:13:48;4.50;1.00
23671;DHT22;12012;51.998;7.614;2022-12-07T17:16:32;4.50;3.10
23671;DHT22;12012;51.998;7.614;2022-12-07T17:18:58;4.50;1.10
23671;DHT22;12012;51.998;7.614;2022-12-07T17:21:23;4.50;7.60
23671;DHT22;12012;51.998;7.614;2022-12-07T17:23:49;4.50;2.80
23671;DHT22;12012;51.998;7.614;2022-12-07T17:26:18;4.40;4.60
23671;DHT22;12012;51.998;7.614;2022-12-07T17:28:44;4.40;6.60
23671;DHT22;12012;51.998;7.614;2022-12-07T17:31:13;4.40;14.30
23671;DHT22;12012;51.998;7.614;2022-12-07T17:33:39;4.40;11.40
23671;DHT22;12012;51.998;7.614;2022-12-07T17:36:21;4.50;14.80
23671;DHT22;12012;51.998;7.614;2022-12-07T17:38:47;4.50;14.30
23671;DHT22;12012;51.998;7.614;2022-12-07T17:41:19;4.40;17.00
23671;DHT22;12012;51.998;7.614;2022-12-07T17:44:08;4.50;19.90
23671;DHT22;12012;51.998;7.614;2022-12-07T17:46:35;4.50;19.40
23671;DHT22;12012;51.998;7.614;2022-12-07T17:49:01;4.50;18.60
23671;DHT22;12012;51.998;7.614;2022-12-07T17:51:26;4.50;24.50
23671;DHT22;12012;51.998;7.614;2022-12-07T17:54:11;4.50;22.00
23671;DHT22;12012;51.998;7.614;2022-12-07T17:56:37;4.50;20.10
23671;DHT22;12012;51.998;7.614;2022-12-07T17:59:04;4.50;19.10
23671;DHT22;12012;51.998;7.614;2022-12-07T18:01:30;4.50;20.60
23671;DHT22;12012;51.998;7.614;2022-12-07T18:03:56;4.50;22.10